createdAt,value
2018-12-15T00:02:54.515Z,14.03
2018-12-15T00:05:57.852Z,12.87
2018-12-15T00:09:01.151Z,10.87
2018-12-15T00:12:04.405Z,10.97
2018-12-15T00:15:08.028Z,11.50
2018-12-15T00:18:11.260Z,13.03
2018-12-15T00:21:14.522Z,13.17
2018-12-15T00:24:17.942Z,12.97
2018-12-15T00:27:21.243Z,12.97
2018-12-15T00:30:24.457Z,13.47
2018-12-15T00:33:27.834Z,12.67
2018-12-15T00:36:31.065Z,13.73
2018-12-15T00:39:34.323Z,12.87
2018-12-15T00:42:37.537Z,14.37
2018-12-15T00:45:40.788Z,12.50
2018-12-15T00:48:44.019Z,13.20
2018-12-15T00:51:47.251Z,13.37
2018-12-15T00:54:50.484Z,14.00
2018-12-15T00:57:53.707Z,13.63
2018-12-15T01:00:56.953Z,13.60
2018-12-15T01:04:00.249Z,12.17
2018-12-15T01:07:03.582Z,13.60
2018-12-15T01:10:06.892Z,13.73
2018-12-15T01:13:10.185Z,13.93
2018-12-15T01:16:13.408Z,14.27
2018-12-15T01:19:16.678Z,13.03
2018-12-15T01:22:19.980Z,15.20
2018-12-15T01:25:23.232Z,14.27
2018-12-15T01:28:26.453Z,13.33
2018-12-15T01:31:29.768Z,14.37
2018-12-15T01:34:32.997Z,12.30
2018-12-15T01:37:36.260Z,13.13
2018-12-15T01:40:39.521Z,12.97
2018-12-15T01:43:43.061Z,12.83
2018-12-15T01:46:46.388Z,13.23
2018-12-15T01:49:49.650Z,12.33
2018-12-15T01:52:52.929Z,12.13
2018-12-15T01:55:56.177Z,12.20
2018-12-15T01:58:59.550Z,12.77
2018-12-15T02:02:02.940Z,13.67
2018-12-15T02:05:06.249Z,13.53
2018-12-15T02:08:09.471Z,13.67
2018-12-15T02:11:12.837Z,12.90
2018-12-15T02:14:16.097Z,12.63
2018-12-15T02:17:19.428Z,13.77
2018-12-15T02:20:22.659Z,14.70
2018-12-15T02:23:25.924Z,13.70
2018-12-15T02:26:29.140Z,14.10
2018-12-15T02:29:32.445Z,13.17
2018-12-15T02:32:35.695Z,12.97
2018-12-15T02:35:38.956Z,12.43
2018-12-15T02:38:42.165Z,13.33
2018-12-15T02:41:47.370Z,12.53
2018-12-15T02:44:50.639Z,12.17
2018-12-15T02:47:53.994Z,11.80
2018-12-15T02:50:57.235Z,13.50
2018-12-15T02:54:00.487Z,12.83
2018-12-15T02:57:03.823Z,12.93
2018-12-15T03:00:07.326Z,12.17
2018-12-15T03:03:10.533Z,12.80
2018-12-15T03:06:13.760Z,12.53
2018-12-15T03:09:16.996Z,13.37
2018-12-15T03:12:20.263Z,12.20
2018-12-15T03:15:23.530Z,13.30
2018-12-15T03:18:26.802Z,14.73
2018-12-15T03:21:30.012Z,13.67
2018-12-15T03:24:33.246Z,12.70
2018-12-15T03:27:36.578Z,13.73
2018-12-15T03:30:39.931Z,14.63
2018-12-15T03:33:43.287Z,13.60
2018-12-15T03:36:46.499Z,14.23
2018-12-15T03:39:49.853Z,14.07
2018-12-15T03:42:53.056Z,15.33
2018-12-15T03:45:56.375Z,13.53
2018-12-15T03:48:59.577Z,15.40
2018-12-15T03:52:02.809Z,14.57
2018-12-15T03:55:06.079Z,14.57
2018-12-15T03:58:09.359Z,15.00
2018-12-15T04:01:12.725Z,15.70
2018-12-15T04:04:16.030Z,14.53
2018-12-15T04:07:19.352Z,15.47
2018-12-15T04:10:22.584Z,15.57
2018-12-15T04:13:25.849Z,15.70
2018-12-15T04:16:29.234Z,13.27
2018-12-15T04:19:32.545Z,13.50
2018-12-15T04:22:35.815Z,14.83
2018-12-15T04:25:39.022Z,14.83
2018-12-15T04:28:42.371Z,15.03
2018-12-15T04:31:45.625Z,13.43
2018-12-15T04:34:48.850Z,14.37
2018-12-15T04:37:52.173Z,15.47
2018-12-15T04:40:55.518Z,13.63
2018-12-15T04:43:59.074Z,15.37
2018-12-15T04:47:02.837Z,14.43
2018-12-15T04:50:06.108Z,15.43
2018-12-15T04:53:09.341Z,15.13
2018-12-15T04:56:12.564Z,14.63
2018-12-15T04:59:15.813Z,14.10
2018-12-15T05:02:19.072Z,15.17
2018-12-15T05:05:22.301Z,14.73
2018-12-15T05:08:25.520Z,16.23
2018-12-15T05:11:28.795Z,15.03
2018-12-15T05:14:32.094Z,16.13
2018-12-15T05:17:35.341Z,16.10
2018-12-15T05:20:38.549Z,16.17
2018-12-15T05:23:41.773Z,15.33
2018-12-15T05:26:45.008Z,14.90
2018-12-15T05:29:48.277Z,15.97
2018-12-15T05:32:51.588Z,15.03
2018-12-15T05:35:54.838Z,15.33
2018-12-15T05:38:58.052Z,16.57
2018-12-15T05:42:01.339Z,15.23
2018-12-15T05:45:05.925Z,14.90
2018-12-15T05:48:09.156Z,16.13
2018-12-15T05:51:12.385Z,16.63
2018-12-15T05:54:15.608Z,15.30
2018-12-15T05:57:18.977Z,15.53
2018-12-15T06:00:22.280Z,16.00
2018-12-15T06:03:25.515Z,15.20
2018-12-15T06:06:28.862Z,15.63
2018-12-15T06:09:32.071Z,15.83
2018-12-15T06:12:35.304Z,17.13
2018-12-15T06:15:38.672Z,15.67
2018-12-15T06:18:41.892Z,16.10
2018-12-15T06:21:45.141Z,15.57
2018-12-15T06:24:48.402Z,15.90
2018-12-15T06:27:51.721Z,16.03
2018-12-15T06:30:55.037Z,16.87
2018-12-15T06:33:58.281Z,15.37
2018-12-15T06:37:01.521Z,17.27
2018-12-15T06:40:06.768Z,15.97
2018-12-15T06:43:10.067Z,15.77
2018-12-15T06:46:13.363Z,17.13
2018-12-15T06:49:16.565Z,15.83
2018-12-15T06:52:19.805Z,19.17
2018-12-15T06:55:23.049Z,16.07
2018-12-15T06:58:26.261Z,16.43
2018-12-15T07:01:29.494Z,17.00
2018-12-15T07:04:32.720Z,17.10
2018-12-15T07:07:35.999Z,16.07
2018-12-15T07:10:39.309Z,16.80
2018-12-15T07:13:42.537Z,16.60
2018-12-15T07:16:45.780Z,16.80
2018-12-15T07:19:49.017Z,17.33
2018-12-15T07:22:52.233Z,18.33
2018-12-15T07:25:55.508Z,17.23
2018-12-15T07:28:58.722Z,18.47
2018-12-15T07:32:01.983Z,18.17
2018-12-15T07:35:05.262Z,18.50
2018-12-15T07:38:08.584Z,18.30
2018-12-15T07:41:11.929Z,17.97
2018-12-15T07:44:15.194Z,18.17
2018-12-15T07:47:18.589Z,18.87
2018-12-15T07:50:21.800Z,19.13
2018-12-15T07:53:25.080Z,17.40
2018-12-15T07:56:28.327Z,18.63
2018-12-15T07:59:31.583Z,17.97
2018-12-15T08:02:34.827Z,19.37
2018-12-15T08:05:38.060Z,18.77
2018-12-15T08:08:41.299Z,20.17
2018-12-15T08:11:49.984Z,16.47
2018-12-15T08:14:53.185Z,17.97
2018-12-15T08:17:56.485Z,18.03
2018-12-15T08:20:59.708Z,18.13
2018-12-15T08:24:02.969Z,17.60
2018-12-15T08:27:06.228Z,18.20
2018-12-15T08:30:10.861Z,16.00
2018-12-15T08:33:14.190Z,15.80
2018-12-15T08:36:17.487Z,17.77
2018-12-15T08:39:21.432Z,17.03
2018-12-15T08:42:24.668Z,15.67
2018-12-15T08:45:27.916Z,16.63
2018-12-15T08:48:31.153Z,17.70
2018-12-15T08:51:34.689Z,17.20
2018-12-15T08:54:37.956Z,16.97
2018-12-15T08:57:41.289Z,17.27
2018-12-15T09:00:44.579Z,16.37
2018-12-15T09:03:47.797Z,16.77
2018-12-15T09:06:51.174Z,16.77
2018-12-15T09:09:54.380Z,16.47
2018-12-15T09:12:57.705Z,16.77
2018-12-15T09:16:01.065Z,16.90
2018-12-15T09:19:04.331Z,16.90
2018-12-15T09:22:11.390Z,15.03
2018-12-15T09:25:12.853Z,16.73
2018-12-15T09:28:16.088Z,15.63
2018-12-15T09:31:19.399Z,15.13
2018-12-15T09:34:22.693Z,15.27
2018-12-15T09:37:25.905Z,16.10
2018-12-15T09:40:29.179Z,15.47
2018-12-15T09:43:32.466Z,15.97
2018-12-15T09:46:35.778Z,15.50
2018-12-15T09:49:39.074Z,15.87
2018-12-15T09:52:42.311Z,17.27
2018-12-15T09:55:45.567Z,16.23
2018-12-15T09:58:48.824Z,16.07
2018-12-15T10:01:52.057Z,16.40
2018-12-15T10:04:55.355Z,16.70
2018-12-15T10:07:58.652Z,15.30
2018-12-15T10:11:01.913Z,16.67
2018-12-15T10:14:05.248Z,17.03
2018-12-15T10:17:09.007Z,19.00
2018-12-15T10:20:12.424Z,15.10
2018-12-15T10:23:15.751Z,14.70
2018-12-15T10:26:19.052Z,16.57
2018-12-15T10:33:00.481Z,15.40
2018-12-15T10:36:03.763Z,16.37
2018-12-15T10:39:08.434Z,15.77
2018-12-15T10:42:11.682Z,15.60
2018-12-15T10:45:14.953Z,16.60
2018-12-15T10:48:18.276Z,15.60
2018-12-15T10:51:21.505Z,16.57
2018-12-15T10:54:24.756Z,16.50
2018-12-15T10:57:28.048Z,15.07
2018-12-15T11:00:36.736Z,14.83
2018-12-15T11:03:39.960Z,13.97
2018-12-15T11:06:43.209Z,16.50
2018-12-15T11:09:46.436Z,14.93
2018-12-15T11:12:49.736Z,14.73
2018-12-15T11:15:52.974Z,15.37
2018-12-15T11:18:56.298Z,16.23
2018-12-15T11:21:59.532Z,15.20
2018-12-15T11:25:02.781Z,15.87
2018-12-15T11:28:06.024Z,14.40
2018-12-15T11:31:09.289Z,16.47
2018-12-15T11:34:12.527Z,14.83
2018-12-15T11:37:15.776Z,15.30
2018-12-15T11:40:19.054Z,14.87
2018-12-15T11:43:22.297Z,14.43
2018-12-15T11:46:25.548Z,15.03
2018-12-15T11:49:28.865Z,16.20
2018-12-15T11:52:32.089Z,14.27
2018-12-15T11:55:35.348Z,14.63
2018-12-15T11:58:38.604Z,15.50
2018-12-15T12:01:41.836Z,16.40
2018-12-15T12:04:45.065Z,14.40
2018-12-15T12:07:48.319Z,14.33
2018-12-15T12:10:51.553Z,15.37
2018-12-15T12:14:00.332Z,14.43
2018-12-15T12:16:59.998Z,14.53
2018-12-15T12:20:06.306Z,14.67
2018-12-15T12:23:09.524Z,14.90
2018-12-15T12:26:12.786Z,15.30
2018-12-15T12:29:16.001Z,14.23
2018-12-15T12:32:19.223Z,15.37
2018-12-15T12:35:22.492Z,14.93
2018-12-15T12:38:25.720Z,15.00
2018-12-15T12:41:28.960Z,14.73
2018-12-15T12:44:32.272Z,13.17
2018-12-15T12:47:35.499Z,16.93
2018-12-15T12:50:38.753Z,15.00
2018-12-15T12:53:42.024Z,15.03
2018-12-15T12:56:45.269Z,15.17
2018-12-15T12:59:48.500Z,14.93
2018-12-15T13:02:51.724Z,16.63
2018-12-15T13:05:54.972Z,14.67
2018-12-15T13:08:58.200Z,14.97
2018-12-15T13:12:01.432Z,16.27
2018-12-15T13:15:05.676Z,14.63
2018-12-15T13:18:09.013Z,14.10
2018-12-15T13:21:12.350Z,14.33
2018-12-15T13:24:15.943Z,15.30
2018-12-15T13:27:19.204Z,15.00
2018-12-15T13:30:23.000Z,14.83
2018-12-15T13:33:33.521Z,14.97
2018-12-15T13:36:36.804Z,14.47
2018-12-15T13:39:40.096Z,16.10
2018-12-15T13:42:43.376Z,14.47
2018-12-15T13:45:46.703Z,15.27
2018-12-15T13:48:49.972Z,14.00
2018-12-15T13:51:53.219Z,14.80
2018-12-15T13:54:56.456Z,14.73
2018-12-15T13:57:59.673Z,13.87
2018-12-15T14:01:02.901Z,14.77
2018-12-15T14:04:06.120Z,14.33
2018-12-15T14:07:09.368Z,14.33
2018-12-15T14:10:12.884Z,14.90
2018-12-15T14:13:16.116Z,16.50
2018-12-15T14:16:19.485Z,14.50
2018-12-15T14:19:22.687Z,14.90
2018-12-15T14:22:25.972Z,15.73
2018-12-15T14:25:29.184Z,16.40
2018-12-15T14:28:32.523Z,15.23
2018-12-15T14:31:35.805Z,15.70
2018-12-15T14:34:39.042Z,16.43
2018-12-15T14:37:42.268Z,15.27
2018-12-15T14:40:45.521Z,16.67
2018-12-15T14:43:48.749Z,15.77
2018-12-15T14:46:52.042Z,16.17
2018-12-15T14:49:55.255Z,16.20
2018-12-15T14:52:58.535Z,14.80
2018-12-15T14:56:01.744Z,16.33
2018-12-15T14:59:04.965Z,16.13
2018-12-15T15:02:08.285Z,16.13
2018-12-15T15:05:11.537Z,15.57
2018-12-15T15:08:14.813Z,15.37
2018-12-15T15:11:18.052Z,15.53
2018-12-15T15:14:21.280Z,16.33
2018-12-15T15:17:24.605Z,16.60
2018-12-15T15:20:29.875Z,16.97
2018-12-15T15:23:33.045Z,17.57
2018-12-15T15:26:36.368Z,17.47
2018-12-15T15:29:39.600Z,16.20
2018-12-15T15:32:42.930Z,16.67
2018-12-15T15:35:46.150Z,15.93
2018-12-15T15:38:49.424Z,17.63
2018-12-15T15:41:52.782Z,17.60
2018-12-15T15:44:56.021Z,17.93
2018-12-15T15:47:59.416Z,16.63
2018-12-15T15:51:02.626Z,17.57
2018-12-15T15:54:05.999Z,17.00
2018-12-15T15:57:09.235Z,19.13
2018-12-15T16:00:12.593Z,17.50
2018-12-15T16:03:15.825Z,17.37
2018-12-15T16:06:19.102Z,18.53
2018-12-15T16:09:22.364Z,20.23
2018-12-15T16:12:25.701Z,17.37
2018-12-15T16:15:29.092Z,18.73
2018-12-15T16:18:32.305Z,17.53
2018-12-15T16:21:35.536Z,16.83
2018-12-15T16:24:38.833Z,17.70
2018-12-15T16:27:42.109Z,17.83
2018-12-15T16:30:45.357Z,17.07
2018-12-15T16:33:48.633Z,17.63
2018-12-15T16:36:51.965Z,16.77
2018-12-15T16:39:55.193Z,16.10
2018-12-15T16:42:58.457Z,15.03
2018-12-15T16:46:01.694Z,15.97
2018-12-15T16:49:06.103Z,16.20
2018-12-15T16:52:09.496Z,16.10
2018-12-15T16:55:13.118Z,15.90
2018-12-15T16:58:16.479Z,17.03
2018-12-15T17:01:19.743Z,15.67
2018-12-15T17:04:23.051Z,16.10
2018-12-15T17:07:26.281Z,14.77
2018-12-15T17:10:29.564Z,16.53
2018-12-15T17:13:32.810Z,15.87
2018-12-15T17:16:36.057Z,16.60
2018-12-15T17:19:39.264Z,15.07
2018-12-15T17:22:42.548Z,16.13
2018-12-15T17:25:45.808Z,15.67
2018-12-15T17:28:49.146Z,14.60
2018-12-15T17:31:52.360Z,14.90
2018-12-15T17:34:55.679Z,15.87
2018-12-15T17:37:58.952Z,15.60
2018-12-15T17:41:02.231Z,14.87
2018-12-15T17:44:05.526Z,16.27
2018-12-15T17:47:08.762Z,15.83
2018-12-15T17:50:12.060Z,15.27
2018-12-15T17:53:15.338Z,16.13
2018-12-15T17:56:18.575Z,15.13
2018-12-15T17:59:21.797Z,16.43
2018-12-15T18:02:25.104Z,14.93
2018-12-15T18:05:28.337Z,14.87
2018-12-15T18:08:31.588Z,14.70
2018-12-15T18:11:34.814Z,16.73
2018-12-15T18:14:38.087Z,15.60
2018-12-15T18:17:41.305Z,17.10
2018-12-15T18:20:44.589Z,15.23
2018-12-15T18:23:47.840Z,15.93
2018-12-15T18:26:51.112Z,16.53
2018-12-15T18:29:54.342Z,15.87
2018-12-15T18:32:57.577Z,17.60
2018-12-15T18:36:00.824Z,16.67
2018-12-15T18:39:06.801Z,16.80
2018-12-15T18:42:10.939Z,15.53
2018-12-15T18:45:14.424Z,14.73
2018-12-15T18:48:17.671Z,14.33
2018-12-15T18:51:20.933Z,14.17
2018-12-15T18:54:24.200Z,14.13
2018-12-15T18:57:27.472Z,14.43
2018-12-15T19:00:30.700Z,14.70
2018-12-15T19:03:33.934Z,14.47
2018-12-15T19:06:37.225Z,13.90
2018-12-15T19:09:40.452Z,13.83
2018-12-15T19:12:43.702Z,14.43
2018-12-15T19:15:46.932Z,14.17
2018-12-15T19:18:50.195Z,13.63
2018-12-15T19:21:53.427Z,13.57
2018-12-15T19:24:56.776Z,15.47
2018-12-15T19:28:00.005Z,14.03
2018-12-15T19:31:03.282Z,13.87
2018-12-15T19:34:06.492Z,13.27
2018-12-15T19:37:09.750Z,13.30
2018-12-15T19:40:13.035Z,13.20
2018-12-15T19:43:16.279Z,14.20
2018-12-15T19:46:19.525Z,14.30
2018-12-15T19:49:22.759Z,14.03
2018-12-15T19:52:26.087Z,13.13
2018-12-15T19:55:29.340Z,12.30
2018-12-15T19:58:32.578Z,13.67
2018-12-15T20:01:35.825Z,12.63
2018-12-15T20:04:39.062Z,13.20
2018-12-15T20:07:42.304Z,13.47
2018-12-15T20:10:45.583Z,13.50
2018-12-15T20:13:48.837Z,13.53
2018-12-15T20:16:52.112Z,13.73
2018-12-15T20:19:55.388Z,13.10
2018-12-15T20:22:58.665Z,13.17
2018-12-15T20:26:01.892Z,13.90
2018-12-15T20:29:05.212Z,14.27
2018-12-15T20:32:08.456Z,14.30
2018-12-15T20:35:11.701Z,14.07
2018-12-15T20:38:14.933Z,13.60
2018-12-15T20:41:19.284Z,12.73
2018-12-15T20:44:22.820Z,13.83
2018-12-15T20:47:27.937Z,14.73
2018-12-15T20:50:31.319Z,15.33
2018-12-15T20:53:34.577Z,14.63
2018-12-15T20:56:37.835Z,14.73
2018-12-15T20:59:41.168Z,15.30
2018-12-15T21:02:44.517Z,13.83
2018-12-15T21:05:48.156Z,14.63
2018-12-15T21:08:51.717Z,14.60
2018-12-15T21:11:55.263Z,15.57
2018-12-15T21:15:00.817Z,15.37
2018-12-15T21:18:04.273Z,16.03
2018-12-15T21:21:07.755Z,14.87
2018-12-15T21:24:11.179Z,15.73
2018-12-15T21:27:14.414Z,15.73
2018-12-15T21:30:17.751Z,15.00
2018-12-15T21:33:21.219Z,16.20
2018-12-15T21:36:24.631Z,14.63
2018-12-15T21:39:28.278Z,16.00
2018-12-15T21:42:31.803Z,16.67
2018-12-15T21:45:35.620Z,17.90
2018-12-15T21:48:38.975Z,15.93
2018-12-15T21:51:42.634Z,17.00
2018-12-15T21:54:45.896Z,17.10
2018-12-15T21:57:49.412Z,17.80
2018-12-15T22:00:52.817Z,16.47
2018-12-15T22:03:56.546Z,16.77
2018-12-15T22:07:00.207Z,16.37
2018-12-15T22:10:04.282Z,17.10
2018-12-15T22:13:07.552Z,18.47
2018-12-15T22:19:31.466Z,17.43
2018-12-15T22:22:35.660Z,17.13
2018-12-15T22:25:39.019Z,16.70
2018-12-15T22:28:42.459Z,17.53
2018-12-15T22:31:45.777Z,18.63
2018-12-15T22:34:49.389Z,17.20
2018-12-15T22:37:52.866Z,18.70
2018-12-15T22:40:56.513Z,18.37
2018-12-15T22:44:00.193Z,17.97
2018-12-15T22:47:03.591Z,18.57
2018-12-15T22:50:07.471Z,19.17
2018-12-15T22:53:11.151Z,18.37
2018-12-15T22:56:14.564Z,19.03
2018-12-15T22:59:17.898Z,18.43
2018-12-15T23:02:21.137Z,19.07
2018-12-15T23:05:24.409Z,17.93
2018-12-15T23:08:27.649Z,18.43
2018-12-15T23:11:30.993Z,17.97
2018-12-15T23:14:34.259Z,17.87
2018-12-15T23:17:37.516Z,19.03
2018-12-15T23:20:40.814Z,18.33
2018-12-15T23:23:44.068Z,18.57
2018-12-15T23:26:47.366Z,18.90
2018-12-15T23:29:50.588Z,17.20
2018-12-15T23:32:53.892Z,17.90
2018-12-15T23:35:57.128Z,16.67
2018-12-15T23:39:00.409Z,18.80
2018-12-15T23:42:03.751Z,18.20
2018-12-15T23:45:07.353Z,19.67
2018-12-15T23:48:10.597Z,18.80
2018-12-15T23:51:13.929Z,19.27
2018-12-15T23:54:17.164Z,18.80
2018-12-15T23:57:20.413Z,18.90
